createdAt,value
2024-03-03T00:00:45.124Z,18.50
2024-03-03T00:03:11.998Z,18.50
2024-03-03T00:05:38.907Z,18.50
2024-03-03T00:08:05.790Z,18.50
2024-03-03T00:10:32.925Z,18.50
2024-03-03T00:12:59.997Z,18.40
2024-03-03T00:15:26.882Z,18.40
2024-03-03T00:17:53.818Z,18.40
2024-03-03T00:20:20.850Z,18.40
2024-03-03T00:22:47.835Z,18.40
2024-03-03T00:25:14.811Z,18.40
2024-03-03T00:27:41.887Z,18.40
2024-03-03T00:30:08.908Z,18.40
2024-03-03T00:32:35.764Z,18.40
2024-03-03T00:35:02.745Z,18.40
2024-03-03T00:37:31.005Z,18.40
2024-03-03T00:39:57.933Z,18.40
2024-03-03T00:42:25.158Z,18.40
2024-03-03T00:44:51.986Z,18.40
2024-03-03T00:47:18.866Z,18.40
2024-03-03T00:49:47.469Z,18.30
2024-03-03T00:52:15.271Z,18.30
2024-03-03T00:54:42.218Z,18.30
2024-03-03T00:57:09.583Z,18.30
2024-03-03T00:59:36.656Z,18.30
2024-03-03T01:02:04.342Z,18.30
2024-03-03T01:04:31.326Z,18.30
2024-03-03T01:06:58.218Z,18.30
2024-03-03T01:09:25.203Z,18.30
2024-03-03T01:11:55.431Z,18.30
2024-03-03T01:14:22.887Z,18.30
2024-03-03T01:16:49.785Z,18.30
2024-03-03T01:19:16.801Z,18.20
2024-03-03T01:21:43.889Z,18.20
2024-03-03T01:24:10.747Z,18.20
2024-03-03T01:26:38.772Z,18.20
2024-03-03T01:29:15.692Z,18.20
2024-03-03T01:31:44.320Z,18.20
2024-03-03T01:34:11.391Z,18.20
2024-03-03T01:36:38.370Z,18.20
2024-03-03T01:39:05.325Z,18.20
2024-03-03T01:41:32.206Z,18.20
2024-03-03T01:43:59.536Z,18.20
2024-03-03T01:46:26.972Z,18.20
2024-03-03T01:48:54.435Z,18.20
2024-03-03T01:51:21.836Z,18.20
2024-03-03T01:53:52.351Z,18.20
2024-03-03T01:56:21.277Z,18.10
2024-03-03T01:58:48.231Z,18.10
2024-03-03T02:01:16.312Z,18.20
2024-03-03T02:03:43.880Z,18.10
2024-03-03T02:06:10.965Z,18.10
2024-03-03T02:08:37.977Z,18.20
2024-03-03T02:11:05.485Z,18.10
2024-03-03T02:13:39.990Z,18.10
2024-03-03T02:16:07.717Z,18.10
2024-03-03T02:18:34.669Z,18.10
2024-03-03T02:21:01.507Z,18.10
2024-03-03T02:23:28.423Z,18.10
2024-03-03T02:25:55.311Z,18.10
2024-03-03T02:28:22.471Z,18.10
2024-03-03T02:30:52.867Z,18.10
2024-03-03T02:33:20.760Z,18.10
2024-03-03T02:35:47.879Z,18.10
2024-03-03T02:38:14.821Z,18.10
2024-03-03T02:40:41.763Z,18.10
2024-03-03T02:43:09.429Z,18.10
2024-03-03T02:45:36.553Z,18.10
2024-03-03T02:48:03.656Z,18.00
2024-03-03T02:50:30.527Z,18.10
2024-03-03T02:52:57.448Z,18.00
2024-03-03T02:55:24.523Z,18.00
2024-03-03T02:57:51.498Z,18.00
2024-03-03T03:00:18.459Z,18.00
2024-03-03T03:02:45.335Z,18.00
2024-03-03T03:05:12.169Z,18.00
2024-03-03T03:07:39.278Z,18.00
2024-03-03T03:10:06.502Z,17.90
2024-03-03T03:12:33.358Z,17.90
2024-03-03T03:15:00.402Z,17.90
2024-03-03T03:17:27.259Z,17.90
2024-03-03T03:19:54.124Z,17.90
2024-03-03T03:22:21.464Z,17.90
2024-03-03T03:24:48.665Z,17.90
2024-03-03T03:27:15.977Z,17.90
2024-03-03T03:29:42.903Z,17.90
2024-03-03T03:32:09.768Z,17.90
2024-03-03T03:34:36.638Z,17.90
2024-03-03T03:37:05.288Z,17.90
2024-03-03T03:39:32.215Z,17.90
2024-03-03T03:41:59.060Z,17.90
2024-03-03T03:44:25.966Z,17.80
2024-03-03T03:46:52.796Z,17.80
2024-03-03T03:49:19.781Z,17.80
2024-03-03T03:51:47.128Z,17.80
2024-03-03T03:54:14.219Z,17.80
2024-03-03T03:56:41.256Z,17.80
2024-03-03T03:59:08.268Z,17.70
2024-03-03T04:01:35.585Z,17.80
2024-03-03T04:04:02.893Z,17.80
2024-03-03T04:06:30.161Z,17.80
2024-03-03T04:08:57.051Z,17.70
2024-03-03T04:11:24.093Z,17.70
2024-03-03T04:13:51.484Z,17.80
2024-03-03T04:16:19.417Z,17.70
2024-03-03T04:18:47.209Z,17.70
2024-03-03T04:21:14.767Z,17.70
2024-03-03T04:23:41.754Z,17.70
2024-03-03T04:26:08.841Z,17.70
2024-03-03T04:28:35.946Z,17.60
2024-03-03T04:31:08.934Z,17.70
2024-03-03T04:33:37.213Z,17.60
2024-03-03T04:36:09.268Z,17.60
2024-03-03T04:38:37.464Z,17.60
2024-03-03T04:41:04.374Z,17.60
2024-03-03T04:43:31.237Z,17.60
2024-03-03T04:45:58.780Z,17.60
2024-03-03T04:48:25.760Z,17.60
2024-03-03T04:50:53.113Z,17.60
2024-03-03T04:53:20.040Z,17.60
2024-03-03T04:55:47.121Z,17.60
2024-03-03T04:58:14.055Z,17.60
2024-03-03T05:00:41.213Z,17.90
2024-03-03T05:03:09.825Z,18.30
2024-03-03T05:05:36.777Z,18.60
2024-03-03T05:08:03.799Z,18.90
2024-03-03T05:10:30.746Z,19.10
2024-03-03T05:12:57.800Z,19.40
2024-03-03T05:15:24.756Z,19.60
2024-03-03T05:17:54.184Z,19.80
2024-03-03T05:20:21.261Z,20.00
2024-03-03T05:22:49.193Z,20.10
2024-03-03T05:25:16.184Z,20.20
2024-03-03T05:27:43.111Z,20.40
2024-03-03T05:30:10.132Z,20.40
2024-03-03T05:32:36.988Z,20.50
2024-03-03T05:35:03.932Z,20.60
2024-03-03T05:37:31.113Z,20.60
2024-03-03T12:36:14.007Z,19.80
2024-03-03T12:38:41.015Z,19.80
2024-03-03T12:41:08.179Z,19.80
2024-03-03T12:43:35.153Z,19.80
2024-03-03T12:46:02.479Z,19.50
2024-03-03T12:48:29.734Z,19.50
2024-03-03T12:50:57.928Z,19.60
2024-03-03T12:53:32.028Z,19.40
2024-03-03T12:56:17.191Z,18.80
2024-03-03T12:58:45.636Z,18.10
2024-03-03T13:01:12.775Z,17.60
2024-03-03T13:03:41.792Z,17.90
2024-03-03T13:06:16.387Z,18.30
2024-03-03T13:08:43.726Z,18.60
2024-03-03T13:11:11.363Z,18.80
2024-03-03T13:13:39.092Z,18.90
2024-03-03T13:16:06.248Z,18.90
2024-03-03T13:18:33.154Z,19.00
2024-03-03T13:21:10.522Z,19.00
2024-03-03T13:23:37.974Z,19.00
2024-03-03T13:26:04.974Z,19.10
2024-03-03T13:28:34.036Z,19.10
2024-03-03T13:31:02.392Z,19.10
2024-03-03T13:33:33.106Z,19.20
2024-03-03T13:36:01.852Z,19.10
2024-03-03T13:38:28.941Z,18.90
2024-03-03T13:40:55.859Z,19.00
2024-03-03T13:43:23.255Z,19.00
2024-03-03T13:45:50.421Z,19.00
2024-03-03T13:48:18.165Z,18.90
2024-03-03T13:50:45.046Z,18.60
2024-03-03T13:53:12.496Z,18.60
2024-03-03T13:55:39.672Z,18.40
2024-03-03T13:58:06.971Z,18.30
2024-03-03T14:00:34.544Z,18.40
2024-03-03T14:03:06.707Z,18.50
2024-03-03T14:05:34.840Z,18.50
2024-03-03T14:08:02.569Z,18.50
2024-03-03T14:10:29.763Z,18.50
2024-03-03T14:12:56.691Z,18.50
2024-03-03T14:15:23.610Z,18.50
2024-03-03T14:17:50.684Z,18.50
2024-03-03T14:20:18.128Z,18.50
2024-03-03T14:22:51.293Z,18.40
2024-03-03T14:25:18.533Z,18.50
2024-03-03T14:27:46.707Z,18.40
2024-03-03T14:30:14.706Z,18.50
2024-03-03T14:32:41.942Z,18.40
2024-03-03T14:35:09.243Z,18.40
2024-03-03T14:37:36.670Z,18.50
2024-03-03T14:40:05.098Z,18.40
2024-03-03T14:42:32.229Z,18.30
2024-03-03T14:44:59.229Z,18.30
2024-03-03T14:47:26.204Z,18.10
2024-03-03T14:49:53.156Z,17.90
2024-03-03T14:52:20.172Z,18.00
2024-03-03T14:54:49.746Z,18.10
2024-03-03T14:57:16.705Z,18.10
2024-03-03T14:59:43.986Z,18.20
2024-03-03T15:02:11.495Z,18.20
2024-03-03T15:04:38.840Z,18.20
2024-03-03T15:07:11.909Z,18.20
2024-03-03T15:09:39.776Z,18.20
2024-03-03T15:12:06.953Z,18.20
2024-03-03T15:14:33.933Z,18.10
2024-03-03T15:17:02.607Z,18.10
2024-03-03T15:19:30.012Z,18.10
2024-03-03T15:21:57.358Z,18.10
2024-03-03T15:24:24.328Z,18.10
2024-03-03T15:26:51.468Z,18.10
2024-03-03T15:29:18.498Z,18.10
2024-03-03T15:31:45.805Z,18.10
2024-03-03T15:34:12.799Z,18.10
2024-03-03T15:36:39.874Z,18.00
2024-03-03T15:39:07.373Z,18.00
2024-03-03T15:41:35.189Z,18.00
2024-03-03T15:44:03.507Z,18.00
2024-03-03T15:46:30.490Z,18.00
2024-03-03T15:48:57.998Z,18.00
2024-03-03T15:51:25.531Z,17.90
2024-03-03T15:53:52.369Z,17.90
2024-03-03T15:56:19.629Z,17.80
2024-03-03T15:58:46.710Z,17.90
2024-03-03T16:01:13.978Z,17.80
2024-03-03T16:03:41.333Z,17.80
2024-03-03T16:06:08.545Z,17.80
2024-03-03T16:08:35.528Z,17.80
2024-03-03T16:11:02.722Z,17.80
2024-03-03T16:13:31.536Z,17.80
2024-03-03T16:15:58.825Z,17.80
2024-03-03T16:18:25.702Z,17.70
2024-03-03T16:20:52.869Z,17.70
2024-03-03T16:23:20.192Z,17.70
2024-03-03T16:25:47.080Z,17.70
2024-03-03T16:28:15.249Z,17.70
2024-03-03T16:30:42.118Z,17.70
2024-03-03T16:33:09.135Z,17.70
2024-03-03T16:35:36.929Z,17.70
2024-03-03T16:38:04.034Z,17.60
2024-03-03T16:40:31.170Z,17.60
2024-03-03T16:43:04.269Z,17.60
2024-03-03T16:45:32.049Z,17.60
2024-03-03T16:47:59.470Z,17.60
2024-03-03T16:50:29.556Z,17.60
2024-03-03T16:52:57.034Z,17.60
2024-03-03T16:55:25.560Z,17.60
2024-03-03T16:57:54.360Z,17.60
2024-03-03T17:00:21.683Z,17.60
2024-03-03T17:02:48.776Z,17.50
2024-03-03T17:05:15.759Z,17.50
2024-03-03T17:07:43.108Z,17.50
2024-03-03T17:10:10.541Z,17.50
2024-03-03T17:12:37.955Z,17.50
2024-03-03T17:15:08.902Z,17.50
2024-03-03T17:17:36.202Z,17.50
2024-03-03T17:20:13.573Z,17.50
2024-03-03T17:22:40.784Z,17.50
2024-03-03T17:25:08.277Z,17.50
2024-03-03T17:27:35.787Z,17.50
2024-03-03T17:30:02.665Z,17.40
2024-03-03T17:32:30.168Z,17.50
2024-03-03T17:34:57.223Z,17.50
2024-03-03T17:37:24.584Z,17.50
2024-03-03T17:39:51.637Z,17.50
2024-03-03T17:42:21.037Z,17.40
2024-03-03T17:44:48.089Z,17.40
2024-03-03T17:47:16.017Z,17.40
2024-03-03T17:49:44.575Z,17.40
2024-03-03T17:52:11.681Z,17.40
2024-03-03T17:54:38.873Z,17.40
2024-03-03T17:57:06.452Z,17.40
2024-03-03T17:59:33.692Z,17.40
2024-03-03T18:02:00.750Z,17.40
2024-03-03T18:04:28.042Z,17.50
2024-03-03T18:06:55.249Z,17.40
2024-03-03T18:09:22.235Z,17.40
2024-03-03T18:11:49.241Z,17.40
2024-03-03T18:14:16.141Z,17.40
2024-03-03T18:16:42.991Z,17.40
2024-03-03T18:19:10.701Z,17.40
2024-03-03T18:21:37.591Z,17.40
2024-03-03T18:24:05.394Z,17.30
2024-03-03T18:26:32.367Z,17.30
2024-03-03T18:28:59.228Z,17.30
2024-03-03T18:31:26.218Z,17.30
2024-03-03T18:33:53.207Z,17.30
2024-03-03T18:36:20.074Z,17.30
2024-03-03T18:38:47.480Z,17.30
2024-03-03T18:41:14.640Z,17.30
2024-03-03T18:43:41.539Z,17.20
2024-03-03T18:46:08.594Z,17.20
2024-03-03T18:48:35.616Z,17.30
2024-03-03T18:51:02.866Z,17.20
2024-03-03T18:53:29.882Z,17.20
2024-03-03T18:55:56.922Z,17.20
2024-03-03T18:58:24.437Z,17.20
2024-03-03T19:00:52.083Z,17.20
2024-03-03T19:03:19.152Z,17.20
2024-03-03T19:05:46.326Z,17.10
2024-03-03T19:08:13.254Z,17.10
2024-03-03T19:10:42.890Z,17.10
2024-03-03T19:13:10.019Z,17.10
2024-03-03T19:15:37.372Z,17.10
2024-03-03T19:18:05.888Z,17.10
2024-03-03T19:20:33.997Z,17.10
2024-03-03T19:23:01.821Z,17.10
2024-03-03T19:25:31.779Z,17.10
2024-03-03T19:27:59.501Z,17.00
2024-03-03T19:30:26.463Z,17.00
2024-03-03T19:32:53.587Z,17.10
2024-03-03T19:35:20.481Z,17.10
2024-03-03T19:37:47.384Z,17.00
2024-03-03T19:40:14.783Z,17.00
2024-03-03T19:42:41.683Z,17.00
2024-03-03T19:45:11.611Z,17.00
2024-03-03T19:47:38.934Z,17.00
2024-03-03T19:50:06.239Z,17.00
2024-03-03T19:52:33.136Z,17.00
2024-03-03T19:55:00.228Z,17.00
2024-03-03T19:57:30.324Z,17.00
2024-03-03T19:59:58.331Z,17.00
2024-03-03T20:02:25.415Z,16.90
2024-03-03T20:04:52.361Z,16.90
2024-03-03T20:07:19.347Z,16.90
2024-03-03T20:09:48.146Z,16.90
2024-03-03T20:12:15.057Z,16.90
2024-03-03T20:14:42.975Z,16.90
2024-03-03T20:17:11.549Z,16.90
2024-03-03T20:19:41.138Z,16.90
2024-03-03T20:22:08.852Z,16.90
2024-03-03T20:24:36.170Z,16.90
2024-03-03T20:27:04.663Z,16.90
2024-03-03T20:29:31.744Z,16.90
2024-03-03T20:31:58.880Z,16.80
2024-03-03T20:34:25.861Z,16.90
2024-03-03T20:36:53.041Z,16.90
2024-03-03T20:39:20.583Z,16.80
2024-03-03T20:41:52.672Z,16.80
2024-03-03T20:44:21.877Z,16.90
2024-03-03T20:46:49.163Z,16.90
2024-03-03T20:49:17.680Z,16.90
2024-03-03T20:51:44.772Z,16.80
2024-03-03T20:54:11.798Z,16.80
2024-03-03T20:56:38.780Z,16.80
2024-03-03T20:59:06.953Z,16.80
2024-03-03T21:01:34.371Z,16.80
2024-03-03T21:04:01.703Z,16.80
2024-03-03T21:06:28.812Z,16.80
2024-03-03T21:08:55.719Z,16.80
2024-03-03T21:11:23.119Z,16.80
2024-03-03T21:13:50.541Z,16.80
2024-03-03T21:16:18.932Z,16.80
2024-03-03T21:18:46.161Z,16.80
2024-03-03T21:21:13.083Z,16.80
2024-03-03T21:23:40.188Z,16.80
2024-03-03T21:26:08.389Z,16.80
2024-03-03T21:28:35.375Z,16.80
2024-03-03T21:31:02.282Z,16.80
2024-03-03T21:33:29.883Z,16.70
2024-03-03T21:35:56.888Z,16.80
2024-03-03T21:38:23.769Z,16.70
2024-03-03T21:40:50.814Z,16.70
2024-03-03T21:43:18.106Z,16.70
2024-03-03T21:45:45.385Z,16.70
2024-03-03T21:48:13.464Z,16.70
2024-03-03T21:50:40.916Z,16.70
2024-03-03T21:53:07.884Z,16.70
2024-03-03T21:55:35.511Z,16.70
2024-03-03T21:58:02.524Z,16.70
2024-03-03T22:00:29.701Z,16.70
2024-03-03T22:02:56.615Z,16.60
2024-03-03T22:05:23.482Z,16.70
2024-03-03T22:07:50.539Z,16.60
2024-03-03T22:10:17.698Z,16.70
2024-03-03T22:12:44.570Z,16.70
2024-03-03T22:15:11.592Z,16.70
2024-03-03T22:17:39.153Z,16.70
2024-03-03T22:20:06.597Z,16.70
2024-03-03T22:22:33.689Z,16.70
2024-03-03T22:25:00.583Z,16.70
2024-03-03T22:27:27.471Z,16.70
2024-03-03T22:29:54.320Z,16.70
2024-03-03T22:32:22.538Z,16.60
2024-03-03T22:34:49.388Z,16.60
2024-03-03T22:37:17.605Z,16.60
2024-03-03T22:39:44.498Z,16.60
2024-03-03T22:42:11.375Z,16.60
2024-03-03T22:44:38.261Z,16.60
2024-03-03T22:47:05.366Z,16.60
2024-03-03T22:49:32.342Z,16.60
2024-03-03T22:51:59.254Z,16.60
2024-03-03T22:54:27.285Z,16.70
2024-03-03T22:56:54.285Z,16.60
2024-03-03T22:59:21.179Z,16.60
2024-03-03T23:01:48.210Z,16.50
2024-03-03T23:04:15.221Z,16.60
2024-03-03T23:06:42.145Z,16.60
2024-03-03T23:09:13.714Z,16.60
2024-03-03T23:11:41.361Z,16.60
2024-03-03T23:14:11.059Z,16.60
2024-03-03T23:16:41.013Z,16.60
2024-03-03T23:19:08.414Z,16.70
2024-03-03T23:21:35.338Z,16.70
2024-03-03T23:24:02.214Z,16.70
2024-03-03T23:26:29.305Z,16.70
2024-03-03T23:28:57.637Z,16.70
2024-03-03T23:31:24.950Z,16.70
2024-03-03T23:33:52.102Z,16.70
2024-03-03T23:36:18.992Z,16.70
2024-03-03T23:38:45.788Z,16.70
2024-03-03T23:41:13.402Z,16.80
2024-03-03T23:43:40.336Z,16.70
2024-03-03T23:46:07.264Z,16.70
2024-03-03T23:48:34.249Z,16.70
2024-03-03T23:51:01.146Z,16.70
2024-03-03T23:53:29.576Z,16.70
2024-03-03T23:55:56.640Z,16.70
2024-03-03T23:58:23.813Z,16.70
